Time;durP1;ratioP1;P1;durP2;ratioP2;P2;SDS_P1;SDS_P2;PMS_P1;PMS_P2;Temp;Humidity;BMP_temperature;BMP_pressure;BME280_temperature;BME280_humidity;BME280_pressure;Samples;Min_cycle;Max_cycle;Signal;HPM_P1;HPM_P2
2022/05/28 00:01:15;;;;;;;3.10;1.23;;;;;;;17.95;43.27;99666.66;7689703;32;39408;-77
2022/05/28 00:05:32;;;;;;;0.75;0.75;;;;;;;17.68;43.86;99688.97;7700497;32;39934;-77
2022/05/28 00:09:48;;;;;;;1.42;0.90;;;;;;;17.43;43.93;99691.38;7700947;32;38564;-76
2022/05/28 00:14:08;;;;;;;0.85;0.85;;;;;;;17.53;44.20;99685.56;7699032;32;36295;-77
2022/05/28 00:18:24;;;;;;;0.88;0.85;;;;;;;17.58;43.76;99682.66;7694238;32;40001;-77
2022/05/28 00:22:41;;;;;;;1.52;0.80;;;;;;;17.59;43.72;99689.81;7685064;32;39906;-77
2022/05/28 00:26:57;;;;;;;1.67;0.90;;;;;;;17.49;43.82;99681.00;7686972;32;37993;-77
2022/05/28 00:31:13;;;;;;;1.45;0.93;;;;;;;17.55;44.46;99666.75;7691751;32;37201;-77
2022/05/28 00:35:30;;;;;;;1.10;1.00;;;;;;;17.46;44.58;99668.69;7685161;32;39063;-77
2022/05/28 00:39:46;;;;;;;1.52;0.77;;;;;;;17.46;43.57;99654.91;7684744;32;39748;-77
2022/05/28 00:44:05;;;;;;;0.77;0.77;;;;;;;17.44;43.98;99648.91;7691311;32;38616;-77
2022/05/28 00:48:26;;;;;;;1.80;1.00;;;;;;;17.37;44.49;99652.13;7689420;32;37919;-77
2022/05/28 00:52:42;;;;;;;1.00;0.80;;;;;;;17.60;44.38;99658.34;7683885;32;39076;-77
2022/05/28 00:56:59;;;;;;;0.88;0.70;;;;;;;17.40;45.16;99654.25;7684703;32;39625;-77
2022/05/28 01:01:15;;;;;;;1.12;0.93;;;;;;;17.40;45.78;99669.97;7690274;32;38033;-77
2022/05/28 01:06:03;;;;;;;1.10;1.00;;;;;;;17.40;45.94;99664.44;7686316;32;37824;-77
2022/05/28 01:10:56;;;;;;;1.35;1.00;;;;;;;17.33;46.15;99661.34;7701294;32;39374;-77
2022/05/28 01:15:23;;;;;;;1.23;1.10;;;;;;;17.42;45.89;99659.44;7709796;32;39888;-77
2022/05/28 01:19:53;;;;;;;1.05;0.95;;;;;;;17.30;45.33;99649.03;7700887;32;38006;-77
2022/05/28 01:24:38;;;;;;;0.70;0.70;;;;;;;17.18;46.16;99641.41;7710987;32;37025;-77
2022/05/28 01:29:07;;;;;;;0.95;0.85;;;;;;;17.32;45.42;99654.25;7709872;32;40179;-77
2022/05/28 01:33:23;;;;;;;1.62;1.00;;;;;;;17.19;46.49;99656.78;7710732;32;40751;-76
2022/05/28 01:37:39;;;;;;;1.75;1.02;;;;;;;17.20;46.33;99660.34;7695116;32;38763;-77
2022/05/28 01:41:56;;;;;;;1.10;1.00;;;;;;;17.13;45.60;99660.81;7683919;32;38139;-77
2022/05/28 01:46:14;;;;;;;1.27;1.00;;;;;;;17.24;46.17;99651.13;7682801;32;39299;-76
2022/05/28 01:50:34;;;;;;;1.10;0.88;;;;;;;17.20;46.32;99655.66;7682590;32;40755;-77
2022/05/28 01:54:51;;;;;;;0.93;0.90;;;;;;;17.14;46.81;99653.38;7691748;32;38563;-77
2022/05/28 01:59:07;;;;;;;0.75;0.70;;;;;;;17.17;45.76;99653.53;7682431;32;37415;-77
2022/05/28 02:03:25;;;;;;;0.88;0.88;;;;;;;17.13;47.08;99654.50;7683068;32;39326;-78
2022/05/28 02:07:41;;;;;;;1.20;1.10;;;;;;;16.93;47.69;99644.88;7683292;32;40084;-77
2022/05/28 02:12:00;;;;;;;0.95;0.95;;;;;;;16.84;47.42;99642.87;7698913;32;37905;-77
2022/05/28 02:16:24;;;;;;;1.62;1.10;;;;;;;16.82;48.23;99644.31;7683346;32;37160;-77
2022/05/28 02:21:10;;;;;;;3.87;1.02;;;;;;;16.57;48.75;99632.03;7683361;32;39146;-77
2022/05/28 02:25:38;;;;;;;1.65;1.20;;;;;;;16.76;48.71;99627.09;7683808;32;39711;-77
2022/05/28 02:29:54;;;;;;;3.62;1.40;;;;;;;16.69;48.97;99635.84;7673535;32;38670;-76
2022/05/28 02:34:11;;;;;;;2.50;1.42;;;;;;;16.67;49.34;99629.00;7681625;32;37163;-77
2022/05/28 02:38:27;;;;;;;1.50;1.12;;;;;;;16.81;48.71;99626.97;7682692;32;40185;-77
2022/05/28 02:42:44;;;;;;;1.52;1.08;;;;;;;16.75;49.25;99627.41;7682160;32;40866;-77
2022/05/28 02:47:00;;;;;;;2.83;1.40;;;;;;;16.82;49.04;99623.09;7688962;32;37822;-77
2022/05/28 02:51:21;;;;;;;1.75;1.00;;;;;;;16.89;48.74;99636.44;7682459;32;37763;-77
2022/05/28 02:55:37;;;;;;;3.08;1.35;;;;;;;16.80;48.72;99628.09;7682468;32;39393;-77
2022/05/28 03:00:00;;;;;;;2.17;0.97;;;;;;;16.78;49.37;99638.62;7684413;32;39980;-77
2022/05/28 03:04:16;;;;;;;2.08;1.30;;;;;;;16.67;49.98;99632.56;7688840;32;37609;-77
2022/05/28 03:08:32;;;;;;;1.27;1.10;;;;;;;16.60;49.59;99636.91;7681962;32;37116;-77
2022/05/28 03:12:48;;;;;;;3.15;1.20;;;;;;;16.60;50.36;99640.47;7682090;32;39871;-77
2022/05/28 03:17:04;;;;;;;3.22;1.20;;;;;;;16.65;50.02;99634.03;7687548;32;39706;-77
2022/05/28 03:21:21;;;;;;;0.95;0.95;;;;;;;16.68;50.48;99633.41;7692385;32;38699;-77
2022/05/28 03:25:37;;;;;;;1.65;1.20;;;;;;;16.80;49.84;99639.12;7685754;32;37261;-77
2022/05/28 03:29:53;;;;;;;1.73;1.20;;;;;;;16.64;50.28;99644.22;7685661;32;39246;-77
2022/05/28 03:34:09;;;;;;;3.78;1.40;;;;;;;16.75;50.34;99641.19;7687693;32;39957;-77
2022/05/28 03:38:25;;;;;;;1.87;1.10;;;;;;;16.88;49.61;99641.13;7692366;32;37973;-77
2022/05/28 03:42:41;;;;;;;1.60;1.10;;;;;;;16.84;50.08;99631.06;7685402;32;37692;-76
2022/05/28 03:46:57;;;;;;;2.62;1.08;;;;;;;16.86;49.89;99628.81;7685473;32;39329;-77
2022/05/28 03:51:13;;;;;;;2.40;1.30;;;;;;;16.94;49.84;99652.00;7687338;32;39897;-76
2022/05/28 03:55:29;;;;;;;1.35;1.20;;;;;;;17.00;49.42;99634.19;7692333;32;37846;-77
2022/05/28 03:59:45;;;;;;;1.20;1.10;;;;;;;16.94;50.11;99630.78;7685356;32;37008;-77
2022/05/28 04:04:01;;;;;;;1.45;1.17;;;;;;;17.11;49.13;99652.06;7685317;32;39398;-77
2022/05/28 04:08:17;;;;;;;3.12;1.35;;;;;;;17.12;49.91;99642.66;7687047;32;40921;-77
2022/05/28 04:12:33;;;;;;;2.10;1.20;;;;;;;16.78;51.33;99649.63;7692122;32;38688;-77
2022/05/28 04:16:49;;;;;;;2.03;1.40;;;;;;;16.69;50.29;99646.84;7685888;32;37050;-77
2022/05/28 04:21:06;;;;;;;3.08;1.33;;;;;;;16.79;49.63;99651.25;7685210;32;40465;-77
2022/05/28 04:25:22;;;;;;;1.30;1.20;;;;;;;17.00;49.69;99650.72;7688009;32;39554;-77
2022/05/28 04:29:38;;;;;;;2.30;1.20;;;;;;;16.86;49.72;99668.16;7704462;32;37581;-77
2022/05/28 04:33:54;;;;;;;2.37;1.30;;;;;;;16.73;50.34;99647.03;7711618;32;37772;-76
2022/05/28 04:38:10;;;;;;;2.00;1.37;;;;;;;16.83;50.27;99651.41;7711621;32;39008;-77
2022/05/28 04:42:26;;;;;;;1.90;1.20;;;;;;;16.98;50.20;99656.53;7707035;32;40657;-77
2022/05/28 04:46:42;;;;;;;2.10;1.35;;;;;;;16.87;50.92;99653.25;7691784;32;37671;-77
2022/05/28 04:50:58;;;;;;;2.40;1.50;;;;;;;16.77;51.40;99659.03;7684706;32;37380;-77
2022/05/28 04:55:14;;;;;;;2.22;1.50;;;;;;;17.13;50.62;99671.03;7684835;32;39951;-76
2022/05/28 04:59:30;;;;;;;1.62;1.35;;;;;;;16.97;52.55;99667.88;7687734;32;39785;-77
2022/05/28 05:03:46;;;;;;;3.17;1.80;;;;;;;16.95;53.38;99668.19;7710941;32;38495;-77
2022/05/28 05:08:02;;;;;;;5.57;2.25;;;;;;;17.14;51.25;99658.87;7688884;32;36815;-77
2022/05/28 05:12:18;;;;;;;6.60;1.77;;;;;;;17.44;51.82;99671.75;7684577;32;39459;-77
2022/05/28 05:16:34;;;;;;;1.92;1.40;;;;;;;17.59;50.97;99653.97;7686189;32;40252;-77
2022/05/28 05:20:51;;;;;;;1.80;1.40;;;;;;;17.77;50.17;99651.22;7703772;32;38582;-77
2022/05/28 05:25:08;;;;;;;3.60;1.25;;;;;;;17.88;49.75;99663.56;7710977;32;36989;-77
2022/05/28 05:29:24;;;;;;;3.47;1.30;;;;;;;18.00;48.48;99672.00;7710779;32;39125;-77
2022/05/28 05:33:40;;;;;;;2.10;1.40;;;;;;;17.84;48.83;99671.66;7696485;32;39669;-77
2022/05/28 05:37:56;;;;;;;2.85;1.27;;;;;;;17.90;48.59;99661.34;7683855;32;37930;-77
2022/05/28 05:42:13;;;;;;;3.17;1.55;;;;;;;17.80;49.99;99667.13;7682901;32;37024;-78
2022/05/28 05:46:29;;;;;;;3.22;1.55;;;;;;;18.17;46.56;99653.84;7684084;32;40118;-78
2022/05/28 05:50:45;;;;;;;1.33;1.15;;;;;;;18.00;46.79;99663.75;7683819;32;40830;-78
2022/05/28 05:55:01;;;;;;;2.92;1.45;;;;;;;17.71;46.67;99658.81;7683934;32;38004;-77
2022/05/28 05:59:17;;;;;;;4.78;1.45;;;;;;;17.73;45.92;99661.25;7683859;32;37120;-74
2022/05/28 06:03:33;;;;;;;2.92;1.48;;;;;;;18.26;44.95;99662.91;7697237;32;39415;-73
2022/05/28 06:07:49;;;;;;;4.93;1.60;;;;;;;18.01;46.27;99659.06;7709767;32;40725;-73
2022/05/28 06:12:06;;;;;;;4.40;1.50;;;;;;;18.30;45.79;99649.28;7688757;32;37995;-73
2022/05/28 06:16:22;;;;;;;1.45;1.30;;;;;;;18.14;44.54;99648.97;7681361;32;38346;-76
2022/05/28 06:20:39;;;;;;;1.60;1.35;;;;;;;18.50;43.48;99650.53;7681841;32;39417;-76
2022/05/28 06:24:55;;;;;;;2.35;1.35;;;;;;;18.33;43.00;99646.69;7682171;32;40839;-77
2022/05/28 06:29:11;;;;;;;2.33;1.15;;;;;;;18.47;42.69;99648.44;7679589;32;37567;-77
2022/05/28 06:33:27;;;;;;;4.07;1.40;;;;;;;18.39;41.28;99650.87;7679581;32;37077;-77
2022/05/28 06:37:43;;;;;;;1.90;1.15;;;;;;;18.54;41.22;99640.47;7679467;32;39382;-79
2022/05/28 06:41:59;;;;;;;2.17;1.45;;;;;;;18.56;42.70;99644.53;7680457;32;39607;-76
2022/05/28 06:46:15;;;;;;;2.53;1.27;;;;;;;18.56;43.23;99649.25;7682670;32;37964;-76
2022/05/28 06:55:08;;;;;;;6.85;1.70;;;;;;;18.34;43.78;99628.97;7686155;32;38816;-76
2022/05/28 06:59:26;;;;;;;1.55;1.40;;;;;;;17.85;44.20;99636.66;7685867;32;40615;-76
2022/05/28 07:03:43;;;;;;;6.07;1.73;;;;;;;18.11;43.49;99636.66;7685720;32;37535;-76
2022/05/28 07:08:00;;;;;;;3.28;1.40;;;;;;;18.76;43.21;99626.44;7685756;32;37121;-76
2022/05/28 07:12:15;;;;;;;4.87;2.00;;;;;;;18.50;43.14;99634.78;7685808;32;39256;-76
2022/05/28 07:16:31;;;;;;;4.00;1.70;;;;;;;18.91;42.39;99625.09;7685765;32;40714;-76
2022/05/28 07:20:48;;;;;;;4.07;1.52;;;;;;;19.20;40.48;99628.22;7685539;32;37932;-77
2022/05/28 07:25:04;;;;;;;3.22;1.50;;;;;;;18.91;42.06;99627.06;7685668;32;36767;-76
2022/05/28 07:29:20;;;;;;;6.15;1.50;;;;;;;19.35;40.68;99624.88;7685569;32;39277;-76
2022/05/28 07:33:39;;;;;;;2.95;1.30;;;;;;;19.13;42.35;99634.28;7685580;32;39892;-76
2022/05/28 07:37:55;;;;;;;5.60;1.67;;;;;;;18.83;42.51;99636.19;7685639;32;37925;-78
2022/05/28 07:42:11;;;;;;;3.53;1.75;;;;;;;19.19;38.89;99643.97;7684312;32;38070;-75
2022/05/28 07:46:30;;;;;;;4.90;1.70;;;;;;;19.48;36.61;99632.09;7685718;32;39489;-76
2022/05/28 07:50:46;;;;;;;2.25;1.52;;;;;;;19.64;34.65;99631.50;7685535;32;40692;-76
2022/05/28 07:55:02;;;;;;;2.42;1.73;;;;;;;19.47;36.22;99649.00;7685468;32;38063;-75
2022/05/28 07:59:18;;;;;;;7.03;1.80;;;;;;;19.94;32.02;99645.28;7685050;32;37480;-76
2022/05/28 08:03:35;;;;;;;4.03;1.30;;;;;;;19.74;31.87;99653.25;7685570;32;39084;-77
2022/05/28 08:07:51;;;;;;;5.93;1.23;;;;;;;19.86;33.15;99661.62;7685432;32;40875;-75
2022/05/28 08:12:07;;;;;;;2.97;1.27;;;;;;;20.42;33.66;99649.41;7685311;32;38633;-77
2022/05/28 08:16:24;;;;;;;6.25;1.55;;;;;;;20.86;31.94;99652.53;7685219;32;37829;-76
2022/05/28 08:25:14;;;;;;;9.18;1.62;;;;;;;21.62;32.34;99649.44;7685132;32;40649;-78
2022/05/28 08:29:31;;;;;;;5.32;1.60;;;;;;;21.73;28.84;99639.47;7685028;32;37972;-77
2022/05/28 08:33:47;;;;;;;4.47;1.40;;;;;;;21.28;29.41;99652.31;7685283;32;36994;-77
2022/05/28 08:38:11;;;;;;;4.20;1.70;;;;;;;21.55;29.96;99644.47;7685111;32;39314;-77
2022/05/28 08:42:28;;;;;;;1.98;1.35;;;;;;;22.02;28.58;99654.97;7684915;32;39842;-77
2022/05/28 08:46:50;;;;;;;4.78;1.30;;;;;;;21.37;28.28;99661.34;7684958;32;37961;-76
2022/05/28 08:51:30;;;;;;;4.30;1.20;;;;;;;22.04;27.65;99654.62;7684961;32;37692;-77
2022/05/28 08:55:48;;;;;;;12.05;2.17;;;;;;;21.87;29.83;99645.44;7684001;32;39086;-77
2022/05/28 09:00:11;;;;;;;3.55;1.40;;;;;;;22.29;29.66;99639.53;7683614;32;39585;-77
2022/05/28 09:04:38;;;;;;;3.12;1.30;;;;;;;22.64;27.97;99635.28;7683538;32;38141;-77
2022/05/28 09:08:56;;;;;;;9.15;1.77;;;;;;;23.32;27.42;99627.84;7683526;32;37457;-78
2022/05/28 09:13:43;;;;;;;3.60;1.48;;;;;;;23.43;27.12;99642.81;7683585;32;40935;-78
2022/05/28 09:17:59;;;;;;;4.65;1.50;;;;;;;22.68;26.92;99634.22;7684647;32;40773;-77
2022/05/28 09:22:15;;;;;;;4.00;1.40;;;;;;;22.60;28.21;99639.94;7684508;32;37985;-76
2022/05/28 09:26:50;;;;;;;6.72;1.52;;;;;;;22.65;27.50;99631.34;7684928;32;37858;-77
2022/05/28 09:31:25;;;;;;;4.47;1.55;;;;;;;22.92;25.92;99645.53;7684430;32;39312;-77
2022/05/28 09:36:05;;;;;;;3.85;1.40;;;;;;;22.90;25.61;99628.41;7684329;32;40018;-77
2022/05/28 09:40:45;;;;;;;2.37;1.33;;;;;;;23.34;25.18;99633.88;7683988;32;38746;-77
2022/05/28 09:45:30;;;;;;;3.45;1.60;;;;;;;23.48;25.65;99628.63;7684226;32;37143;-77
2022/05/28 09:49:52;;;;;;;18.33;3.05;;;;;;;23.53;26.38;99633.09;7684059;32;39251;-78
2022/05/28 09:54:20;;;;;;;1.80;1.20;;;;;;;23.41;24.71;99620.91;7684039;32;39897;-77
2022/05/28 09:58:40;;;;;;;4.68;1.48;;;;;;;23.23;27.84;99623.28;7683873;32;38496;-78
2022/05/28 10:07:44;;;;;;;2.83;1.55;;;;;;;23.40;25.69;99626.84;7683801;32;39135;-77
2022/05/28 10:12:16;;;;;;;9.93;1.77;;;;;;;24.26;25.13;99608.38;7683499;32;41126;-81
2022/05/28 10:16:40;;;;;;;3.37;1.23;;;;;;;22.93;25.13;99625.72;7682410;32;37808;-81
2022/05/28 10:21:17;;;;;;;5.80;1.58;;;;;;;23.26;26.45;99605.06;7683390;32;37136;-82
2022/05/28 10:25:50;;;;;;;3.65;1.10;;;;;;;23.70;25.16;99602.09;7685986;32;39393;-78
2022/05/28 10:30:21;;;;;;;11.38;1.90;;;;;;;22.98;27.40;99602.41;7685179;32;39944;-79
2022/05/28 10:34:40;;;;;;;3.47;1.65;;;;;;;23.29;25.54;99611.91;7686421;32;37859;-78
2022/05/28 10:39:10;;;;;;;3.08;1.30;;;;;;;23.59;25.24;99595.47;7686333;32;38193;-78
2022/05/28 10:43:36;;;;;;;6.60;1.60;;;;;;;23.77;24.56;99598.66;7686474;32;39264;-78
2022/05/28 10:48:20;;;;;;;4.65;1.60;;;;;;;23.25;24.88;99607.06;7686340;32;40143;-78
2022/05/28 10:52:53;;;;;;;12.05;1.85;;;;;;;23.04;22.93;99606.50;7686230;32;37630;-78
2022/05/28 10:57:24;;;;;;;;;;;;;;;23.45;23.33;99595.97;7686389;32;37949;-78
2022/05/28 11:01:54;;;;;;;1.80;1.00;;;;;;;24.18;21.56;99596.28;7686184;32;40267;-79
2022/05/28 11:07:01;;;;;;;6.57;1.40;;;;;;;23.71;20.47;99586.19;7684855;32;40645;-79
2022/05/28 11:11:51;;;;;;;5.95;1.50;;;;;;;23.91;21.04;99601.75;7684731;32;38713;-79
2022/05/28 11:16:28;;;;;;;3.97;1.52;;;;;;;23.95;21.05;99597.03;7685850;32;37012;-78
2022/05/28 11:20:59;;;;;;;3.83;1.05;;;;;;;23.58;21.36;99597.44;7685822;32;39309;-79
2022/05/28 11:25:21;;;;;;;6.80;1.10;;;;;;;24.17;21.07;99578.78;7685820;32;39902;-78
2022/05/28 11:29:56;;;;;;;2.85;1.10;;;;;;;24.22;21.38;99574.09;7685774;32;37926;-78
2022/05/28 11:34:29;;;;;;;10.55;1.40;;;;;;;24.37;20.40;99567.63;7685297;32;37762;-77
2022/05/28 11:38:49;;;;;;;;;;;;;;;24.19;20.04;99547.78;7685990;32;40039;-78
2022/05/28 11:43:12;;;;;;;1.83;0.90;;;;;;;24.22;21.52;99560.97;7685438;32;40123;-77
2022/05/28 11:47:46;;;;;;;3.25;1.20;;;;;;;24.23;21.32;99564.56;7685669;32;37985;-79
2022/05/28 11:52:33;;;;;;;4.57;1.25;;;;;;;25.08;20.18;99551.28;7685518;32;37790;-79
2022/05/28 11:56:56;;;;;;;2.85;1.10;;;;;;;24.51;19.33;99555.91;7684334;32;40050;-78
2022/05/28 12:01:21;;;;;;;3.60;1.40;;;;;;;23.64;19.92;99572.91;7685280;32;39777;-79
2022/05/28 12:06:01;;;;;;;4.87;1.20;;;;;;;22.77;20.21;99563.78;7685090;32;37597;-77
2022/05/28 12:11:01;;;;;;;6.18;1.17;;;;;;;22.56;20.96;99558.47;7685179;32;37975;-79
2022/05/28 12:15:17;;;;;;;4.57;1.12;;;;;;;22.48;21.47;99566.63;7690905;32;39567;-79
2022/05/28 12:19:34;;;;;;;5.80;1.33;;;;;;;22.91;22.00;99543.87;7685022;32;39986;-78
2022/05/28 12:23:50;;;;;;;6.62;1.30;;;;;;;23.79;21.68;99560.91;7683750;32;38617;-78
2022/05/28 12:28:22;;;;;;;3.67;1.30;;;;;;;23.89;19.29;99540.06;7683745;32;37189;-79
2022/05/28 12:32:48;;;;;;;1.67;0.80;;;;;;;24.25;20.74;99535.19;7684837;32;39962;-78
2022/05/28 12:37:12;;;;;;;5.20;1.02;;;;;;;24.78;18.32;99533.69;7684865;32;38882;-79
2022/05/28 12:41:38;;;;;;;3.03;1.15;;;;;;;24.16;20.05;99531.81;7683501;32;37888;-79
2022/05/28 12:45:56;;;;;;;4.53;1.00;;;;;;;24.06;19.81;99532.41;7671133;32;37721;-79
2022/05/28 12:50:32;;;;;;;3.50;0.95;;;;;;;24.11;20.02;99512.63;7701117;32;39209;-79
2022/05/28 12:54:58;;;;;;;1.35;0.75;;;;;;;24.87;20.70;99498.81;7702699;32;244053;-78
2022/05/28 12:59:37;;;;;;;6.22;1.40;;;;;;;24.84;19.48;99507.91;7703529;32;36197;-77
2022/05/28 13:03:54;;;;;;;3.20;1.10;;;;;;;24.54;22.52;99510.59;7711310;32;39203;-81
2022/05/28 13:08:14;;;;;;;8.57;1.40;;;;;;;24.52;20.78;99504.56;7707580;32;39069;-80
2022/05/28 13:12:54;;;;;;;2.70;1.12;;;;;;;24.76;21.02;99499.81;7684686;32;39725;-81
2022/05/28 13:17:19;;;;;;;3.22;1.02;;;;;;;24.42;18.38;99480.13;7683913;32;36333;-81
2022/05/28 13:22:02;;;;;;;2.45;0.80;;;;;;;25.03;20.69;99493.03;7684573;32;37104;-77
2022/05/28 13:26:49;;;;;;;4.62;0.93;;;;;;;25.78;19.34;99479.25;7693748;32;40049;-76
2022/05/28 13:31:10;;;;;;;2.00;0.82;;;;;;;26.61;18.20;99475.25;7684244;32;39915;-77
2022/05/28 13:35:26;;;;;;;1.20;0.80;;;;;;;25.96;19.12;99476.69;7684201;32;38736;-77
2022/05/28 13:39:46;;;;;;;3.03;0.80;;;;;;;26.51;19.01;99475.97;7684065;32;37999;-76
2022/05/28 13:44:07;;;;;;;2.78;0.93;;;;;;;26.37;18.78;99481.41;7701128;32;39996;-77
2022/05/28 13:48:25;;;;;;;4.70;1.08;;;;;;;26.55;15.63;99476.00;7710404;32;40095;-77
2022/05/28 13:52:45;;;;;;;1.10;0.65;;;;;;;26.75;17.02;99466.19;7709826;32;38120;-76
2022/05/28 13:57:03;;;;;;;6.93;1.00;;;;;;;26.45;16.07;99483.09;7708604;32;36983;-77
2022/05/28 14:01:31;;;;;;;1.12;0.80;;;;;;;26.61;15.19;99480.84;7710089;32;39275;-77
2022/05/28 14:05:51;;;;;;;2.22;0.85;;;;;;;26.79;16.38;99471.81;7710077;32;40033;-76
2022/05/28 14:10:18;;;;;;;2.62;0.75;;;;;;;25.49;17.31;99467.78;7709845;32;37959;-76
2022/05/28 14:14:36;;;;;;;4.12;0.90;;;;;;;26.13;16.38;99469.66;7704714;32;37855;-76
2022/05/28 14:18:56;;;;;;;3.62;0.82;;;;;;;27.02;16.36;99470.72;7706048;32;39290;-82
2022/05/28 14:23:12;;;;;;;1.75;0.70;;;;;;;27.23;16.20;99476.44;7690094;32;39340;-80
2022/05/28 14:27:29;;;;;;;3.25;0.90;;;;;;;27.26;15.20;99475.66;7705429;32;37796;-79
2022/05/28 14:31:46;;;;;;;1.60;0.70;;;;;;;26.85;16.45;99475.03;7707249;32;36695;-82
2022/05/28 14:36:14;;;;;;;5.28;0.80;;;;;;;26.98;14.90;99482.69;7682003;32;38948;-81
2022/05/28 14:40:31;;;;;;;3.30;0.55;;;;;;;26.68;14.85;99476.50;7690321;32;40786;-80
2022/05/28 14:44:46;;;;;;;2.60;0.55;;;;;;;26.38;16.51;99483.84;7684434;32;37863;-81
2022/05/28 14:49:06;;;;;;;1.85;0.75;;;;;;;27.00;15.05;99475.91;7708325;32;37034;-82
2022/05/28 14:53:44;;;;;;;3.12;0.55;;;;;;;26.19;15.69;99464.53;7708072;32;40514;-82
2022/05/28 14:58:13;;;;;;;2.15;0.50;;;;;;;26.77;14.56;99471.41;7708063;32;40583;-85
2022/05/28 15:02:34;;;;;;;4.57;0.62;;;;;;;27.28;14.74;99472.47;7694291;32;37985;-82
2022/05/28 15:06:58;;;;;;;0.80;0.50;;;;;;;27.25;15.58;99462.88;7692762;32;37248;-81
2022/05/28 15:11:41;;;;;;;1.50;0.50;;;;;;;27.15;14.48;99470.00;7698528;32;39274;-82
2022/05/28 15:15:59;;;;;;;2.12;0.55;;;;;;;26.86;15.79;99473.84;7711399;32;40838;-87
2022/05/28 15:20:15;;;;;;;5.25;0.50;;;;;;;26.13;14.49;99458.50;7690707;32;36854;-83
2022/05/28 15:24:31;;;;;;;2.97;0.50;;;;;;;26.15;14.62;99453.31;7693227;32;37171;-87
2022/05/28 15:28:47;;;;;;;3.15;0.52;;;;;;;26.05;14.78;99462.41;7699586;32;40055;-85
2022/05/28 15:33:10;;;;;;;2.97;0.30;;;;;;;25.86;15.81;99453.00;7711582;32;41640;-84
2022/05/28 15:42:08;;;;;;;0.50;0.35;;;;;;;26.80;15.34;99459.41;7705927;32;37811;-78
2022/05/28 15:46:25;;;;;;;4.53;0.57;;;;;;;25.96;15.22;99464.72;7696071;32;39302;-77
2022/05/28 15:50:41;;;;;;;4.75;0.62;;;;;;;26.38;15.28;99455.09;7686775;32;39986;-77
2022/05/28 15:55:01;;;;;;;0.55;0.40;;;;;;;25.85;15.59;99450.59;7685484;32;37906;-79
2022/05/28 15:59:20;;;;;;;1.42;0.60;;;;;;;26.14;16.73;99457.28;7685496;32;37062;-81
2022/05/28 16:03:36;;;;;;;2.00;0.40;;;;;;;26.51;15.37;99459.19;7685445;32;38484;-79
2022/05/28 16:08:04;;;;;;;6.45;0.70;;;;;;;26.51;15.09;99464.78;7685765;32;40936;-80
2022/05/28 16:12:22;;;;;;;2.37;0.70;;;;;;;26.58;14.68;99464.03;7704012;32;37869;-79
2022/05/28 16:16:38;;;;;;;0.40;0.40;;;;;;;26.04;15.00;99455.19;7699350;32;37114;-78
2022/05/28 16:20:54;;;;;;;0.47;0.28;;;;;;;26.17;14.97;99464.91;7695488;32;39996;-80
2022/05/28 16:25:10;;;;;;;1.65;0.60;;;;;;;25.83;15.02;99473.31;7687330;32;39908;-79
2022/05/28 16:29:26;;;;;;;4.45;0.77;;;;;;;25.80;14.84;99473.28;7691749;32;37831;-80
2022/05/28 16:33:42;;;;;;;2.20;0.40;;;;;;;25.27;15.84;99468.69;7688564;32;37516;-80
2022/05/28 16:37:59;;;;;;;0.40;0.40;;;;;;;25.29;16.32;99464.31;7707493;32;39329;-80
2022/05/28 16:42:18;;;;;;;1.58;0.32;;;;;;;25.03;15.92;99473.53;7693741;32;39902;-80
2022/05/28 16:46:34;;;;;;;4.28;0.60;;;;;;;24.89;16.62;99476.13;7689021;32;38518;-80
2022/05/28 16:50:56;;;;;;;0.60;0.60;;;;;;;24.57;16.77;99487.56;7710133;32;37930;-80
2022/05/28 16:55:13;;;;;;;7.35;1.17;;;;;;;24.29;17.15;99501.81;7711190;32;39322;-77
2022/05/28 16:59:30;;;;;;;5.28;1.80;;;;;;;23.87;17.66;99497.87;7693767;32;40607;-81
2022/05/28 17:03:46;;;;;;;1.10;0.40;;;;;;;23.85;19.23;99504.97;7700226;32;38483;-81
2022/05/28 17:08:02;;;;;;;2.60;1.15;;;;;;;23.85;18.09;99503.00;7710563;32;36809;-79
2022/05/28 17:12:22;;;;;;;4.90;0.85;;;;;;;23.95;18.55;99518.31;7708306;32;39363;-81
2022/05/28 17:16:38;;;;;;;0.85;0.60;;;;;;;23.25;19.33;99523.63;7707367;32;39897;-80
2022/05/28 17:21:00;;;;;;;1.87;0.90;;;;;;;23.52;20.08;99537.69;7708411;32;37968;-79
2022/05/28 17:25:23;;;;;;;1.70;0.60;;;;;;;23.53;19.15;99538.53;7706823;32;37032;-80
2022/05/28 17:29:40;;;;;;;7.37;1.10;;;;;;;23.07;20.12;99536.31;7707137;32;39372;-79
2022/05/28 17:33:56;;;;;;;13.90;1.58;;;;;;;22.78;20.66;99537.59;7707882;32;41164;-80
2022/05/28 17:38:14;;;;;;;5.57;1.20;;;;;;;22.73;21.57;99540.66;7709341;32;37989;-80
2022/05/28 17:42:31;;;;;;;1.85;0.70;;;;;;;22.82;21.13;99547.62;7708822;32;37500;-79
2022/05/28 17:46:47;;;;;;;9.57;1.02;;;;;;;22.15;21.96;99550.28;7710695;32;40103;-79
2022/05/28 17:51:03;;;;;;;3.58;0.82;;;;;;;21.50;23.58;99548.44;7683832;32;39890;-79
2022/05/28 17:55:19;;;;;;;3.53;1.37;;;;;;;21.20;22.69;99559.81;7683586;32;37999;-78
2022/05/28 17:59:38;;;;;;;8.10;3.00;;;;;;;21.33;23.28;99554.25;7683792;32;37953;-78
2022/05/28 18:03:57;;;;;;;1.67;1.25;;;;;;;21.16;24.08;99555.31;7688001;32;39030;-78
2022/05/28 18:08:13;;;;;;;2.50;1.10;;;;;;;21.27;24.26;99556.47;7710361;32;40820;-78
2022/05/28 18:12:29;;;;;;;2.80;1.00;;;;;;;20.93;24.89;99564.09;7691937;32;38859;-79
2022/05/28 18:16:46;;;;;;;1.05;0.95;;;;;;;20.99;25.02;99573.81;7692124;32;37025;-78
2022/05/28 18:21:04;;;;;;;5.68;0.88;;;;;;;20.85;25.58;99562.25;7710001;32;39305;-78
2022/05/28 18:25:20;;;;;;;1.67;0.88;;;;;;;20.68;25.89;99566.09;7708698;32;39728;-79
2022/05/28 18:29:36;;;;;;;1.55;0.77;;;;;;;20.16;27.19;99570.22;7690631;32;38530;-78
2022/05/28 18:33:53;;;;;;;2.90;0.60;;;;;;;20.05;27.06;99574.56;7696721;32;37081;-80
2022/05/28 18:38:10;;;;;;;2.25;0.60;;;;;;;19.70;27.62;99575.66;7708465;32;39446;-74
2022/05/28 18:42:27;;;;;;;3.45;0.95;;;;;;;19.82;27.60;99579.69;7702096;32;39718;-74
2022/05/28 18:46:43;;;;;;;6.82;1.02;;;;;;;19.80;27.72;99591.06;7693726;32;37846;-74
2022/05/28 18:51:07;;;;;;;3.00;0.85;;;;;;;19.46;28.31;99598.47;7712816;32;37014;-73
2022/05/28 18:55:34;;;;;;;11.32;5.70;;;;;;;19.52;28.30;99599.88;7709667;32;39136;-74
2022/05/28 18:59:57;;;;;;;44.97;23.77;;;;;;;19.14;28.87;99609.06;7690222;32;40846;-77
2022/05/28 19:04:25;;;;;;;50.23;24.57;;;;;;;19.07;29.01;99613.50;7688686;32;38599;-75
2022/05/28 19:08:44;;;;;;;16.25;5.00;;;;;;;18.92;29.40;99628.66;7711123;32;37256;-75
2022/05/28 19:13:03;;;;;;;20.52;6.65;;;;;;;18.76;29.72;99620.09;7712580;32;39427;-75
2022/05/28 19:17:21;;;;;;;12.45;5.03;;;;;;;18.49;30.13;99626.84;7708424;32;39998;-74
2022/05/28 19:21:37;;;;;;;12.27;5.72;;;;;;;18.38;30.35;99629.13;7687489;32;37857;-75
2022/05/28 19:30:31;;;;;;;17.80;9.02;;;;;;;18.33;30.58;99630.13;7712416;32;39269;-74
2022/05/28 19:34:49;;;;;;;11.52;3.12;;;;;;;18.09;31.05;99629.81;7712155;32;40681;-74
2022/05/28 19:39:05;;;;;;;12.73;4.03;;;;;;;18.12;30.64;99630.00;7712013;32;38639;-74
2022/05/28 19:43:22;;;;;;;4.75;1.98;;;;;;;18.10;30.68;99626.75;7710116;32;37144;-73
2022/05/28 19:47:46;;;;;;;10.82;3.53;;;;;;;17.97;29.98;99628.56;7710018;32;39459;-72
2022/05/28 19:52:14;;;;;;;9.25;2.92;;;;;;;17.71;31.36;99630.44;7708946;32;40021;-73
2022/05/28 19:56:31;;;;;;;8.13;3.40;;;;;;;17.74;31.62;99625.09;7708576;32;38066;-73
2022/05/28 20:00:49;;;;;;;7.05;3.10;;;;;;;17.83;32.03;99622.34;7709917;32;37287;-73
2022/05/28 20:05:05;;;;;;;3.40;1.92;;;;;;;17.68;33.18;99620.06;7708012;32;39324;-75
2022/05/28 20:09:22;;;;;;;5.35;1.40;;;;;;;17.80;33.21;99606.47;7709940;32;39879;-74
2022/05/28 20:13:39;;;;;;;1.17;1.08;;;;;;;17.65;33.61;99611.31;7709318;32;37789;-74
2022/05/28 20:17:55;;;;;;;3.45;1.50;;;;;;;17.45;33.30;99611.94;7709754;32;36966;-75
2022/05/28 20:22:15;;;;;;;7.60;1.20;;;;;;;17.57;32.70;99617.63;7709452;32;39259;-74
2022/05/28 20:26:32;;;;;;;2.87;0.93;;;;;;;17.34;34.11;99622.47;7708095;32;40298;-75
2022/05/28 20:30:48;;;;;;;1.58;1.10;;;;;;;17.05;35.22;99620.28;7700200;32;37669;-73
2022/05/28 20:35:06;;;;;;;1.05;0.95;;;;;;;17.19;34.36;99626.47;7687755;32;37139;-73
2022/05/28 20:39:22;;;;;;;3.03;1.20;;;;;;;16.99;35.29;99635.31;7709065;32;40861;-73
2022/05/28 20:43:39;;;;;;;3.58;1.67;;;;;;;16.87;36.17;99633.19;7709167;32;40739;-73
2022/05/28 20:47:58;;;;;;;5.65;2.58;;;;;;;16.75;37.21;99644.75;7707561;32;38707;-74
2022/05/28 20:52:35;;;;;;;3.50;1.27;;;;;;;16.63;37.26;99639.03;7707293;32;37114;-74